Time;durP1;ratioP1;P1;durP2;ratioP2;P2;SDS_P1;SDS_P2;PMS_P1;PMS_P2;Temp;Humidity;BMP_temperature;BMP_pressure;BME280_temperature;BME280_humidity;BME280_pressure;Samples;Min_cycle;Max_cycle;Signal;HPM_P1;HPM_P2
2023/10/21 00:00:08;;;;;;;;;;;11.20;99.90;;;;;;4861793;29;19928;-89
2023/10/21 00:02:34;;;;;;;;;;;11.20;99.90;;;;;;4860593;29;19954;-89
2023/10/21 00:04:59;;;;;;;;;;;11.10;99.90;;;;;;4860705;29;19979;-89
2023/10/21 00:07:25;;;;;;;;;;;11.10;99.90;;;;;;4860798;29;19932;-89
2023/10/21 00:09:51;;;;;;;;;;;11.00;99.90;;;;;;4860537;29;19958;-89
2023/10/21 00:12:16;;;;;;;;;;;11.00;99.90;;;;;;4860750;29;19951;-90
2023/10/21 00:14:42;;;;;;;;;;;11.00;99.90;;;;;;4860461;29;19983;-89
2023/10/21 00:17:07;;;;;;;;;;;11.00;99.90;;;;;;4862112;29;19983;-89
2023/10/21 00:19:34;;;;;;;;;;;10.90;99.90;;;;;;4861302;29;20348;-90
2023/10/21 00:21:59;;;;;;;;;;;10.90;99.90;;;;;;4860446;29;19935;-89
2023/10/21 00:24:25;;;;;;;;;;;10.80;99.90;;;;;;4845880;29;19932;-89
2023/10/21 00:26:51;;;;;;;;;;;10.80;99.90;;;;;;4860597;29;19971;-89
2023/10/21 00:29:16;;;;;;;;;;;10.80;99.90;;;;;;4860351;29;19936;-90
2023/10/21 00:31:43;;;;;;;;;;;10.70;99.90;;;;;;4860362;29;19935;-89
2023/10/21 00:34:09;;;;;;;;;;;10.70;99.90;;;;;;4860614;29;19928;-90
2023/10/21 00:36:34;;;;;;;;;;;10.60;99.90;;;;;;4860324;29;19932;-90
2023/10/21 00:39:01;;;;;;;;;;;10.70;99.90;;;;;;4860264;29;19928;-89
2023/10/21 00:41:27;;;;;;;;;;;10.80;99.90;;;;;;4844969;29;19956;-90
2023/10/21 00:43:52;;;;;;;;;;;10.80;99.90;;;;;;4860426;29;19979;-90
2023/10/21 00:46:18;;;;;;;;;;;10.80;99.90;;;;;;4860315;29;19934;-90
2023/10/21 00:48:47;;;;;;;;;;;10.80;99.90;;;;;;4860026;29;19979;-89
2023/10/21 00:51:15;;;;;;;;;;;10.70;99.90;;;;;;4861234;29;20011;-89
2023/10/21 00:53:40;;;;;;;;;;;10.70;99.90;;;;;;4861075;29;20379;-90
2023/10/21 00:56:06;;;;;;;;;;;10.70;99.90;;;;;;4859977;29;19932;-90
2023/10/21 00:58:32;;;;;;;;;;;10.60;99.90;;;;;;4862044;29;19935;-88
2023/10/21 01:01:02;;;;;;;;;;;10.60;99.90;;;;;;4864786;29;19943;-89
2023/10/21 01:03:28;;;;;;;;;;;10.60;99.90;;;;;;4863966;29;19928;-90
2023/10/21 01:05:54;;;;;;;;;;;10.60;99.90;;;;;;4864007;29;20395;-89
2023/10/21 01:08:19;;;;;;;;;;;10.60;99.90;;;;;;4864540;29;20280;-90
2023/10/21 01:10:45;;;;;;;;;;;10.60;99.90;;;;;;4847906;29;19950;-89
2023/10/21 01:13:11;;;;;;;;;;;10.60;99.90;;;;;;4864060;29;19958;-90
2023/10/21 01:15:36;;;;;;;;;;;10.60;99.90;;;;;;4864305;29;19937;-90
2023/10/21 01:18:08;;;;;;;;;;;10.50;99.90;;;;;;4864242;29;19928;-90
2023/10/21 01:20:35;;;;;;;;;;;10.50;99.90;;;;;;4863374;29;19980;-90
2023/10/21 01:23:01;;;;;;;;;;;10.50;99.90;;;;;;4863339;29;19927;-90
2023/10/21 01:25:27;;;;;;;;;;;10.50;99.90;;;;;;4863611;29;19928;-90
2023/10/21 01:27:56;;;;;;;;;;;10.50;99.90;;;;;;4863865;29;20269;-89
2023/10/21 01:30:21;;;;;;;;;;;10.50;99.90;;;;;;4863167;29;19935;-90
2023/10/21 01:32:47;;;;;;;;;;;10.50;99.90;;;;;;4848396;29;20349;-89
2023/10/21 01:35:17;;;;;;;;;;;10.50;99.90;;;;;;4833755;29;19935;-90
2023/10/21 01:37:43;;;;;;;;;;;10.50;99.90;;;;;;4865760;29;19991;-90
2023/10/21 01:40:10;;;;;;;;;;;10.50;99.90;;;;;;4863479;29;19935;-89
2023/10/21 01:42:36;;;;;;;;;;;10.50;99.90;;;;;;4863294;29;19928;-89
2023/10/21 01:45:02;;;;;;;;;;;10.40;99.90;;;;;;4832627;29;19928;-90
2023/10/21 01:47:29;;;;;;;;;;;10.40;99.90;;;;;;4863874;29;19928;-90
2023/10/21 01:49:57;;;;;;;;;;;10.40;99.90;;;;;;4862832;29;20360;-89
2023/10/21 01:52:23;;;;;;;;;;;10.40;99.90;;;;;;4863086;29;19928;-91
2023/10/21 01:54:48;;;;;;;;;;;10.30;99.90;;;;;;4863928;29;19928;-90
2023/10/21 01:57:14;;;;;;;;;;;10.30;99.90;;;;;;4863771;29;20014;-89
2023/10/21 01:59:39;;;;;;;;;;;10.30;99.90;;;;;;4863773;29;19928;-89
2023/10/21 02:02:05;;;;;;;;;;;10.30;99.90;;;;;;4862968;29;19928;-90
2023/10/21 02:04:31;;;;;;;;;;;10.30;99.90;;;;;;4862916;29;19928;-89
2023/10/21 02:06:57;;;;;;;;;;;10.30;99.90;;;;;;4863118;29;19928;-90
2023/10/21 02:09:22;;;;;;;;;;;10.30;99.90;;;;;;4861592;29;20015;-90
2023/10/21 02:11:48;;;;;;;;;;;10.30;99.90;;;;;;4847243;29;19972;-90
2023/10/21 02:14:13;;;;;;;;;;;10.30;99.90;;;;;;4862161;29;19929;-90
2023/10/21 02:16:39;;;;;;;;;;;10.30;99.90;;;;;;4847435;29;19928;-89
2023/10/21 02:19:04;;;;;;;;;;;10.30;99.90;;;;;;4862268;29;20368;-90
2023/10/21 02:21:30;;;;;;;;;;;10.20;99.90;;;;;;4862308;29;19935;-90
2023/10/21 02:23:56;;;;;;;;;;;10.30;99.90;;;;;;4847141;29;19932;-90
2023/10/21 02:26:21;;;;;;;;;;;10.20;99.90;;;;;;4863188;29;20389;-90
2023/10/21 02:28:47;;;;;;;;;;;10.30;99.90;;;;;;4847550;29;19988;-90
2023/10/21 02:31:12;;;;;;;;;;;10.30;99.90;;;;;;4862134;29;19980;-90
2023/10/21 02:33:38;;;;;;;;;;;10.30;99.90;;;;;;4862224;29;19935;-90
2023/10/21 02:36:04;;;;;;;;;;;10.30;99.90;;;;;;4862195;29;19966;-89
2023/10/21 02:38:30;;;;;;;;;;;10.40;99.90;;;;;;4862169;29;19928;-90
2023/10/21 02:40:55;;;;;;;;;;;10.40;99.90;;;;;;4846603;29;20031;-90
2023/10/21 02:43:21;;;;;;;;;;;10.40;99.90;;;;;;4861936;29;19933;-90
2023/10/21 02:45:48;;;;;;;;;;;10.40;99.90;;;;;;4846876;29;19935;-90
2023/10/21 02:48:14;;;;;;;;;;;10.50;99.90;;;;;;4846577;29;19928;-90
2023/10/21 02:50:40;;;;;;;;;;;10.40;99.90;;;;;;4861721;29;19985;-90
2023/10/21 02:53:05;;;;;;;;;;;10.40;99.90;;;;;;4861934;29;19932;-90
2023/10/21 02:55:31;;;;;;;;;;;10.50;99.90;;;;;;4861902;29;19975;-90
2023/10/21 02:57:57;;;;;;;;;;;10.40;99.90;;;;;;4862688;29;19928;-90
2023/10/21 03:00:22;;;;;;;;;;;10.40;99.90;;;;;;4862706;29;20395;-90
2023/10/21 03:02:51;;;;;;;;;;;10.40;99.90;;;;;;4861819;29;19936;-90
2023/10/21 03:05:17;;;;;;;;;;;10.50;99.90;;;;;;4862713;29;19929;-90
2023/10/21 03:07:43;;;;;;;;;;;10.50;99.90;;;;;;4862145;29;19929;-90
2023/10/21 03:10:10;;;;;;;;;;;10.50;99.90;;;;;;4861365;29;19928;-90
2023/10/21 03:12:36;;;;;;;;;;;10.50;99.90;;;;;;4846814;29;20283;-90
2023/10/21 03:15:02;;;;;;;;;;;10.50;99.90;;;;;;4861034;29;19935;-91
2023/10/21 03:17:28;;;;;;;;;;;10.50;99.90;;;;;;4846812;29;19953;-90
2023/10/21 03:19:56;;;;;;;;;;;10.50;99.90;;;;;;4861180;29;19990;-90
2023/10/21 03:22:22;;;;;;;;;;;10.50;99.90;;;;;;4861147;29;19935;-90
2023/10/21 03:24:47;;;;;;;;;;;10.50;99.90;;;;;;4861446;29;19928;-90
2023/10/21 03:27:13;;;;;;;;;;;10.50;99.90;;;;;;4861976;29;19928;-90
2023/10/21 03:29:42;;;;;;;;;;;10.50;99.90;;;;;;4845669;29;19932;-91
2023/10/21 03:32:09;;;;;;;;;;;10.50;99.90;;;;;;4860930;29;19947;-90
2023/10/21 03:34:35;;;;;;;;;;;10.50;99.90;;;;;;4861207;29;19928;-90
2023/10/21 03:37:01;;;;;;;;;;;10.40;99.90;;;;;;4861373;29;19928;-90
2023/10/21 03:39:26;;;;;;;;;;;10.40;99.90;;;;;;4861797;29;20260;-90
2023/10/21 03:41:52;;;;;;;;;;;10.40;99.90;;;;;;4861188;29;20399;-90
2023/10/21 03:44:18;;;;;;;;;;;10.50;99.90;;;;;;4861262;29;20023;-89
2023/10/21 03:46:44;;;;;;;;;;;10.50;99.90;;;;;;4845393;29;20077;-91
2023/10/21 03:49:09;;;;;;;;;;;10.50;99.90;;;;;;4861724;29;19928;-90
2023/10/21 03:51:35;;;;;;;;;;;10.50;99.90;;;;;;4860879;29;20448;-90
2023/10/21 03:54:01;;;;;;;;;;;10.50;99.90;;;;;;4860846;29;19981;-90
2023/10/21 03:56:27;;;;;;;;;;;10.40;99.90;;;;;;4861702;29;19928;-90
2023/10/21 03:58:53;;;;;;;;;;;10.40;99.90;;;;;;4861116;29;19956;-90
2023/10/21 04:01:20;;;;;;;;;;;10.40;99.90;;;;;;4861019;29;19982;-90
2023/10/21 04:03:46;;;;;;;;;;;10.40;99.90;;;;;;4861828;29;20412;-90
2023/10/21 04:06:13;;;;;;;;;;;10.30;99.90;;;;;;4862563;29;19928;-90
2023/10/21 04:08:39;;;;;;;;;;;10.30;99.90;;;;;;4861660;29;19935;-90
2023/10/21 04:11:05;;;;;;;;;;;10.30;99.90;;;;;;4860584;29;19928;-90
2023/10/21 04:13:31;;;;;;;;;;;10.30;99.90;;;;;;4861544;29;19935;-90
2023/10/21 04:15:57;;;;;;;;;;;10.30;99.90;;;;;;4862347;29;19928;-90
2023/10/21 04:18:23;;;;;;;;;;;10.30;99.90;;;;;;4861098;29;19934;-90
2023/10/21 04:20:49;;;;;;;;;;;10.40;99.90;;;;;;4860899;29;19928;-90
2023/10/21 04:23:14;;;;;;;;;;;10.40;99.90;;;;;;4849329;29;20348;-88
2023/10/21 04:25:40;;;;;;;;;;;10.40;99.90;;;;;;4867231;29;20019;-91
2023/10/21 04:28:06;;;;;;;;;;;10.40;99.90;;;;;;4866666;29;19932;-90
2023/10/21 04:30:31;;;;;;;;;;;10.50;99.90;;;;;;4863614;29;19971;-90
2023/10/21 04:32:57;;;;;;;;;;;10.50;99.90;;;;;;4863500;29;19928;-90
2023/10/21 04:35:22;;;;;;;;;;;10.50;99.90;;;;;;4865287;29;20380;-90
2023/10/21 04:37:48;;;;;;;;;;;10.50;99.90;;;;;;4834536;29;19928;-90
2023/10/21 04:40:14;;;;;;;;;;;10.60;99.90;;;;;;4865022;29;19928;-90
2023/10/21 04:42:40;;;;;;;;;;;10.70;99.90;;;;;;4864393;29;20023;-90
2023/10/21 04:45:07;;;;;;;;;;;10.70;99.90;;;;;;4864354;29;20007;-90
2023/10/21 04:47:32;;;;;;;;;;;10.70;99.90;;;;;;4864277;29;19928;-90
2023/10/21 04:49:58;;;;;;;;;;;10.70;99.90;;;;;;4849302;29;19935;-90
2023/10/21 04:52:23;;;;;;;;;;;10.70;99.90;;;;;;4864071;29;20301;-90
2023/10/21 04:54:50;;;;;;;;;;;10.70;99.90;;;;;;4848383;29;19928;-90
2023/10/21 04:57:16;;;;;;;;;;;10.60;99.90;;;;;;4848708;29;19928;-90
2023/10/21 04:59:42;;;;;;;;;;;10.60;99.90;;;;;;4848639;29;20022;-90
2023/10/21 05:02:08;;;;;;;;;;;10.60;99.90;;;;;;4864929;29;20040;-90
2023/10/21 05:04:36;;;;;;;;;;;10.60;99.90;;;;;;4863739;29;19957;-90
2023/10/21 05:07:02;;;;;;;;;;;10.60;99.90;;;;;;4863754;29;19950;-90
2023/10/21 05:09:28;;;;;;;;;;;10.70;99.90;;;;;;4864259;29;19928;-90
2023/10/21 05:11:54;;;;;;;;;;;10.70;99.90;;;;;;4863306;29;20019;-90
2023/10/21 05:14:19;;;;;;;;;;;10.80;99.90;;;;;;4863486;29;19976;-89
2023/10/21 05:16:46;;;;;;;;;;;10.80;99.90;;;;;;4847829;29;19951;-90
2023/10/21 05:19:11;;;;;;;;;;;10.90;99.90;;;;;;4863615;29;19996;-89
2023/10/21 05:21:37;;;;;;;;;;;10.90;99.90;;;;;;4863403;29;19929;-90
2023/10/21 05:24:03;;;;;;;;;;;10.90;99.90;;;;;;4863900;29;19929;-90
2023/10/21 05:26:28;;;;;;;;;;;11.00;99.90;;;;;;4832921;29;19936;-90
2023/10/21 05:28:54;;;;;;;;;;;11.00;99.90;;;;;;4863439;29;19929;-90
2023/10/21 05:31:19;;;;;;;;;;;11.00;99.90;;;;;;4863933;29;19950;-89
2023/10/21 05:33:45;;;;;;;;;;;11.00;99.90;;;;;;4863423;29;19928;-89
2023/10/21 05:36:11;;;;;;;;;;;11.00;99.90;;;;;;4862868;29;19928;-90
2023/10/21 05:38:36;;;;;;;;;;;11.00;99.90;;;;;;4863216;29;20001;-89
2023/10/21 05:41:02;;;;;;;;;;;11.00;99.90;;;;;;4863286;29;19935;-90
2023/10/21 05:43:27;;;;;;;;;;;11.00;99.90;;;;;;4863132;29;19928;-89
2023/10/21 05:45:53;;;;;;;;;;;11.00;99.90;;;;;;4862002;29;20413;-90
2023/10/21 05:48:19;;;;;;;;;;;11.00;99.90;;;;;;4847967;29;19928;-90
2023/10/21 05:50:45;;;;;;;;;;;11.00;99.90;;;;;;4862398;29;19980;-87
2023/10/21 05:53:10;;;;;;;;;;;11.00;99.90;;;;;;4862782;29;20353;-89
2023/10/21 05:55:40;;;;;;;;;;;11.00;99.90;;;;;;4862730;29;19939;-90
2023/10/21 05:58:07;;;;;;;;;;;11.00;99.90;;;;;;4862675;29;20026;-88
2023/10/21 06:00:33;;;;;;;;;;;11.10;99.90;;;;;;4847840;29;19928;-89
2023/10/21 06:02:59;;;;;;;;;;;11.10;99.90;;;;;;4847526;29;19936;-89
2023/10/21 06:05:24;;;;;;;;;;;11.10;99.90;;;;;;4862848;29;20360;-89
2023/10/21 06:07:50;;;;;;;;;;;11.10;99.90;;;;;;4848047;29;20380;-88
2023/10/21 06:10:16;;;;;;;;;;;11.10;99.90;;;;;;4863754;29;20027;-88
2023/10/21 06:12:43;;;;;;;;;;;11.10;99.90;;;;;;4863271;29;19928;-85
2023/10/21 06:15:09;;;;;;;;;;;11.10;99.90;;;;;;4862057;29;19928;-89
2023/10/21 06:17:34;;;;;;;;;;;11.10;99.90;;;;;;4862482;29;20019;-89
2023/10/21 06:20:00;;;;;;;;;;;11.10;99.90;;;;;;4862860;29;19932;-84
2023/10/21 06:22:26;;;;;;;;;;;11.10;99.90;;;;;;4862420;29;19948;-86
2023/10/21 06:24:51;;;;;;;;;;;11.10;99.90;;;;;;4862433;29;19928;-87
2023/10/21 06:27:17;;;;;;;;;;;11.20;99.90;;;;;;4863195;29;20420;-85
2023/10/21 06:29:42;;;;;;;;;;;11.20;99.90;;;;;;4863119;29;19929;-86
2023/10/21 06:32:09;;;;;;;;;;;11.20;99.90;;;;;;4863158;29;19967;-85
2023/10/21 06:34:35;;;;;;;;;;;11.20;99.90;;;;;;4863263;29;19929;-85
2023/10/21 06:37:01;;;;;;;;;;;11.20;99.90;;;;;;4863196;29;19928;-84
2023/10/21 06:39:27;;;;;;;;;;;11.20;99.90;;;;;;4863177;29;20367;-86
2023/10/21 06:41:52;;;;;;;;;;;11.30;99.90;;;;;;4863182;29;20014;-86
2023/10/21 06:44:18;;;;;;;;;;;11.30;99.90;;;;;;4861942;29;19979;-84
2023/10/21 06:46:44;;;;;;;;;;;11.30;99.90;;;;;;4847447;29;19928;-88
2023/10/21 06:49:09;;;;;;;;;;;11.30;99.90;;;;;;4863941;29;20268;-87
2023/10/21 06:51:36;;;;;;;;;;;11.40;99.90;;;;;;4863617;29;19986;-85
2023/10/21 06:54:02;;;;;;;;;;;11.40;99.90;;;;;;4862838;29;19971;-85
2023/10/21 06:56:28;;;;;;;;;;;11.40;99.90;;;;;;4862332;29;20372;-86
2023/10/21 06:58:53;;;;;;;;;;;11.40;99.90;;;;;;4862241;29;19928;-87
2023/10/21 07:01:19;;;;;;;;;;;11.50;99.90;;;;;;4846543;29;19928;-85
2023/10/21 07:03:45;;;;;;;;;;;11.50;99.90;;;;;;4861661;29;19928;-83
2023/10/21 07:06:11;;;;;;;;;;;11.50;99.90;;;;;;4861618;29;19951;-86
2023/10/21 07:08:37;;;;;;;;;;;11.50;99.90;;;;;;4861358;29;19935;-88
2023/10/21 07:11:03;;;;;;;;;;;11.60;99.90;;;;;;4846486;29;19929;-90
2023/10/21 07:13:29;;;;;;;;;;;11.50;99.90;;;;;;4862005;29;19928;-88
2023/10/21 07:15:56;;;;;;;;;;;11.60;99.90;;;;;;4860369;29;20370;-90
2023/10/21 07:18:22;;;;;;;;;;;11.60;99.90;;;;;;4861305;29;19928;-88
2023/10/21 07:20:55;;;;;;;;;;;11.60;99.90;;;;;;4846192;29;19964;-88
2023/10/21 07:23:21;;;;;;;;;;;11.60;99.90;;;;;;4846788;29;19928;-89
2023/10/21 07:25:46;;;;;;;;;;;11.70;99.90;;;;;;4861329;29;20022;-88
2023/10/21 07:28:12;;;;;;;;;;;11.60;99.90;;;;;;4860975;29;19935;-87
2023/10/21 07:30:37;;;;;;;;;;;11.70;99.90;;;;;;4862565;29;19932;-89
2023/10/21 07:33:03;;;;;;;;;;;11.70;99.90;;;;;;4846503;29;20364;-87
2023/10/21 07:35:29;;;;;;;;;;;11.80;99.90;;;;;;4862035;29;19928;-88
2023/10/21 07:37:54;;;;;;;;;;;11.90;99.90;;;;;;4845751;29;19980;-89
2023/10/21 07:40:20;;;;;;;;;;;11.90;99.90;;;;;;4862488;29;19935;-88
2023/10/21 07:42:46;;;;;;;;;;;12.00;99.90;;;;;;4862455;29;19935;-87
2023/10/21 07:45:14;;;;;;;;;;;12.10;99.90;;;;;;4862369;29;20288;-88
2023/10/21 07:47:40;;;;;;;;;;;12.20;99.90;;;;;;4862001;29;19932;-86
2023/10/21 07:50:07;;;;;;;;;;;12.20;99.90;;;;;;4845472;29;20019;-90
2023/10/21 07:52:35;;;;;;;;;;;12.30;99.90;;;;;;4845380;29;19928;-86
2023/10/21 07:55:00;;;;;;;;;;;12.30;99.90;;;;;;4845841;29;19928;-87
2023/10/21 07:57:26;;;;;;;;;;;12.40;99.90;;;;;;4846172;29;20336;-86
2023/10/21 07:59:52;;;;;;;;;;;12.40;99.90;;;;;;4860719;29;20023;-87
2023/10/21 08:02:18;;;;;;;;;;;12.50;99.90;;;;;;4860831;29;20392;-87
2023/10/21 08:04:44;;;;;;;;;;;12.50;99.90;;;;;;4862161;29;20380;-86
2023/10/21 08:07:10;;;;;;;;;;;12.50;99.90;;;;;;4859700;29;19982;-85
2023/10/21 08:09:38;;;;;;;;;;;12.50;99.90;;;;;;4860154;29;20022;-84
2023/10/21 08:12:04;;;;;;;;;;;12.60;99.90;;;;;;4860973;29;20015;-84
2023/10/21 08:14:31;;;;;;;;;;;12.60;99.90;;;;;;4845132;29;19984;-86
2023/10/21 08:16:57;;;;;;;;;;;12.60;99.90;;;;;;4861350;29;20074;-86
2023/10/21 08:19:24;;;;;;;;;;;12.60;99.90;;;;;;4862565;29;20279;-83
2023/10/21 08:21:50;;;;;;;;;;;12.60;99.90;;;;;;4860657;29;20043;-84
2023/10/21 08:24:15;;;;;;;;;;;12.60;99.90;;;;;;4860547;29;20056;-84
2023/10/21 08:26:41;;;;;;;;;;;12.60;99.90;;;;;;4844997;29;19928;-84
2023/10/21 08:29:07;;;;;;;;;;;12.70;99.90;;;;;;4860197;29;20008;-86
2023/10/21 08:31:33;;;;;;;;;;;12.70;99.90;;;;;;4860635;29;19928;-85
2023/10/21 08:33:58;;;;;;;;;;;12.70;99.90;;;;;;4860609;29;20352;-87
2023/10/21 08:36:24;;;;;;;;;;;12.80;99.90;;;;;;4861306;29;19935;-84
2023/10/21 08:38:53;;;;;;;;;;;12.80;99.90;;;;;;4861503;29;20432;-86
2023/10/21 08:41:19;;;;;;;;;;;12.90;99.90;;;;;;4861531;29;19928;-89
2023/10/21 08:43:46;;;;;;;;;;;12.90;99.90;;;;;;4844890;29;19996;-84
2023/10/21 08:46:14;;;;;;;;;;;13.00;99.90;;;;;;4860534;29;19951;-84
2023/10/21 08:48:41;;;;;;;;;;;13.10;99.90;;;;;;4860531;29;19934;-84
2023/10/21 08:51:08;;;;;;;;;;;13.20;99.90;;;;;;4860110;29;19939;-84
2023/10/21 08:53:36;;;;;;;;;;;13.30;99.90;;;;;;4860270;29;19928;-84
2023/10/21 08:56:01;;;;;;;;;;;13.40;99.90;;;;;;4844786;29;19928;-85
2023/10/21 08:58:31;;;;;;;;;;;13.50;99.90;;;;;;4860432;29;20270;-85
2023/10/21 09:00:57;;;;;;;;;;;13.60;99.90;;;;;;4860420;29;20391;-84
2023/10/21 09:03:23;;;;;;;;;;;13.60;99.90;;;;;;4860360;29;19961;-84
2023/10/21 09:06:03;;;;;;;;;;;13.60;99.90;;;;;;4860330;29;20367;-85
2023/10/21 09:08:32;;;;;;;;;;;13.70;99.90;;;;;;4860451;29;20019;-84
2023/10/21 09:10:59;;;;;;;;;;;13.70;99.90;;;;;;4845024;29;19985;-85
2023/10/21 09:13:31;;;;;;;;;;;13.60;99.90;;;;;;4845678;29;20340;-84
2023/10/21 09:15:57;;;;;;;;;;;13.70;99.90;;;;;;4860096;29;20364;-84
2023/10/21 09:18:23;;;;;;;;;;;13.60;99.90;;;;;;4845192;29;19967;-83
2023/10/21 09:20:51;;;;;;;;;;;13.60;99.90;;;;;;4863918;29;19975;-86
2023/10/21 09:23:17;;;;;;;;;;;13.60;99.90;;;;;;4864571;29;20398;-84
2023/10/21 09:25:50;;;;;;;;;;;13.60;99.90;;;;;;4848173;29;19936;-86
2023/10/21 09:28:22;;;;;;;;;;;13.60;99.90;;;;;;4848297;29;19928;-85
2023/10/21 09:30:56;;;;;;;;;;;13.60;99.90;;;;;;4863223;29;19959;-85
2023/10/21 09:33:22;;;;;;;;;;;13.50;99.90;;;;;;4832821;29;19928;-86
2023/10/21 09:35:59;;;;;;;;;;;13.50;99.90;;;;;;4864362;29;19928;-84
2023/10/21 09:38:24;;;;;;;;;;;13.50;99.90;;;;;;4863495;29;19932;-84
2023/10/21 09:40:50;;;;;;;;;;;13.50;99.90;;;;;;4847651;29;20061;-84
2023/10/21 09:43:17;;;;;;;;;;;13.50;99.90;;;;;;4863183;29;19939;-89
2023/10/21 09:45:46;;;;;;;;;;;13.50;99.90;;;;;;4848436;29;19935;-85
2023/10/21 09:48:12;;;;;;;;;;;13.60;99.90;;;;;;4863414;29;19928;-84
2023/10/21 09:50:42;;;;;;;;;;;13.60;99.90;;;;;;4862951;29;20387;-86
2023/10/21 09:53:15;;;;;;;;;;;13.60;99.90;;;;;;4863123;29;19928;-83
2023/10/21 09:55:41;;;;;;;;;;;13.60;99.90;;;;;;4863153;29;20018;-83
2023/10/21 09:58:11;;;;;;;;;;;13.70;99.90;;;;;;4847688;29;19928;-84
2023/10/21 10:00:38;;;;;;;;;;;13.70;99.90;;;;;;4862748;29;19963;-88
2023/10/21 10:03:05;;;;;;;;;;;13.70;99.90;;;;;;4862812;29;19928;-85
2023/10/21 10:05:30;;;;;;;;;;;13.70;99.90;;;;;;4862485;29;20392;-83
2023/10/21 10:07:56;;;;;;;;;;;13.60;99.90;;;;;;4866877;29;19940;-88
2023/10/21 10:10:23;;;;;;;;;;;13.60;99.90;;;;;;4838775;29;19935;-86
2023/10/21 10:12:52;;;;;;;;;;;13.60;99.90;;;;;;4869353;29;19948;-87
2023/10/21 10:15:28;;;;;;;;;;;13.60;99.90;;;;;;4866797;29;19928;-87
2023/10/21 10:17:53;;;;;;;;;;;13.70;99.90;;;;;;4849742;29;19975;-87
2023/10/21 10:20:22;;;;;;;;;;;13.80;99.90;;;;;;4850368;29;19962;-87
2023/10/21 10:22:49;;;;;;;;;;;13.80;99.90;;;;;;4866026;29;19928;-85
2023/10/21 10:25:23;;;;;;;;;;;13.80;99.90;;;;;;4862718;29;20024;-87
2023/10/21 10:27:55;;;;;;;;;;;13.90;99.90;;;;;;4863599;29;19928;-87
2023/10/21 10:30:20;;;;;;;;;;;13.90;99.90;;;;;;4861145;29;19928;-87
2023/10/21 10:32:50;;;;;;;;;;;14.00;99.90;;;;;;4863773;29;19932;-87
2023/10/21 10:35:31;;;;;;;;;;;14.00;99.90;;;;;;4847764;29;19934;-85
2023/10/21 10:37:59;;;;;;;;;;;14.00;99.90;;;;;;4863113;29;20031;-86
2023/10/21 10:40:32;;;;;;;;;;;14.00;99.90;;;;;;4846927;29;19935;-84
2023/10/21 10:42:58;;;;;;;;;;;13.90;99.90;;;;;;4862983;29;19990;-85
2023/10/21 10:45:24;;;;;;;;;;;13.90;99.90;;;;;;4862264;29;19928;-88
2023/10/21 10:47:58;;;;;;;;;;;13.90;99.90;;;;;;4863395;29;19935;-87
2023/10/21 10:50:24;;;;;;;;;;;13.90;99.90;;;;;;4862446;29;19949;-86
2023/10/21 10:52:49;;;;;;;;;;;13.90;99.90;;;;;;4861857;29;19928;-85
2023/10/21 10:55:15;;;;;;;;;;;13.90;99.90;;;;;;4861868;29;19928;-88
2023/10/21 10:57:42;;;;;;;;;;;13.90;99.90;;;;;;4861891;29;19975;-87
2023/10/21 11:00:10;;;;;;;;;;;13.90;99.90;;;;;;4846718;29;19928;-87
2023/10/21 11:02:42;;;;;;;;;;;13.90;99.90;;;;;;4847135;29;19932;-83
2023/10/21 11:05:08;;;;;;;;;;;13.90;99.90;;;;;;4862411;29;19928;-88
2023/10/21 11:07:34;;;;;;;;;;;14.10;99.90;;;;;;4861599;29;20304;-86
2023/10/21 11:10:01;;;;;;;;;;;14.20;99.90;;;;;;4861212;29;20431;-86
2023/10/21 11:12:27;;;;;;;;;;;14.20;99.90;;;;;;4861642;29;19932;-88
2023/10/21 11:14:53;;;;;;;;;;;14.20;99.90;;;;;;4860818;29;19990;-86
2023/10/21 11:17:18;;;;;;;;;;;14.20;99.90;;;;;;4846200;29;19980;-87
2023/10/21 11:19:44;;;;;;;;;;;14.20;99.90;;;;;;4862473;29;19934;-88
2023/10/21 11:22:20;;;;;;;;;;;14.10;99.90;;;;;;4862105;29;19935;-86
2023/10/21 11:24:47;;;;;;;;;;;14.00;99.90;;;;;;4861487;29;19980;-88
2023/10/21 11:27:13;;;;;;;;;;;13.90;99.90;;;;;;4846015;29;19928;-88
2023/10/21 11:29:38;;;;;;;;;;;13.90;99.90;;;;;;4862252;29;20028;-84
2023/10/21 11:32:09;;;;;;;;;;;13.80;99.90;;;;;;4862046;29;19932;-87
2023/10/21 11:34:35;;;;;;;;;;;13.80;99.90;;;;;;4863622;29;19932;-84
2023/10/21 11:37:01;;;;;;;;;;;13.80;99.90;;;;;;4862513;29;19928;-85
2023/10/21 11:39:26;;;;;;;;;;;13.90;99.90;;;;;;4862076;29;19932;-85
2023/10/21 11:41:55;;;;;;;;;;;14.00;99.90;;;;;;4861219;29;19963;-84
2023/10/21 11:44:24;;;;;;;;;;;14.00;99.90;;;;;;4862199;29;19935;-84
2023/10/21 11:46:50;;;;;;;;;;;14.10;99.90;;;;;;4862015;29;19999;-84
2023/10/21 11:49:16;;;;;;;;;;;14.20;99.90;;;;;;4861060;29;19928;-86
2023/10/21 11:51:42;;;;;;;;;;;14.30;99.90;;;;;;4846448;29;20006;-87
2023/10/21 11:54:23;;;;;;;;;;;14.30;99.90;;;;;;4860953;29;19928;-86
2023/10/21 12:13:19;;;;;;;;;;;15.20;99.90;;;;;;4861060;29;19990;-85
2023/10/21 12:24:00;;;;;;;;;;;15.40;99.90;;;;;;4860525;29;20441;-86
2023/10/21 12:37:32;;;;;;;;;;;15.40;99.90;;;;;;4861493;29;19928;-86
2023/10/21 12:39:58;;;;;;;;;;;15.50;99.90;;;;;;4861401;29;19936;-85
2023/10/21 12:42:27;;;;;;;;;;;15.60;99.90;;;;;;4861507;29;19952;-85
2023/10/21 12:45:02;;;;;;;;;;;15.70;99.90;;;;;;4845257;29;19982;-86
2023/10/21 12:47:30;;;;;;;;;;;15.70;99.90;;;;;;4845501;29;19984;-85
2023/10/21 12:49:56;;;;;;;;;;;15.70;99.90;;;;;;4861382;29;19932;-85
2023/10/21 12:52:22;;;;;;;;;;;15.60;99.90;;;;;;4860520;29;20299;-86
2023/10/21 12:54:48;;;;;;;;;;;15.60;99.90;;;;;;4863225;29;19935;-85
2023/10/21 12:57:16;;;;;;;;;;;15.50;99.90;;;;;;4863852;29;19929;-88
2023/10/21 12:59:42;;;;;;;;;;;15.50;99.90;;;;;;4864867;29;19928;-84
2023/10/21 13:02:10;;;;;;;;;;;15.50;99.90;;;;;;4865718;29;20023;-84
2023/10/21 13:04:40;;;;;;;;;;;15.60;99.90;;;;;;4864715;29;19954;-89
2023/10/21 13:07:06;;;;;;;;;;;15.60;99.90;;;;;;4863935;29;19928;-86
2023/10/21 13:09:32;;;;;;;;;;;15.60;99.90;;;;;;4863724;29;20409;-85
2023/10/21 13:11:57;;;;;;;;;;;15.60;99.90;;;;;;4864092;29;20368;-87
2023/10/21 13:14:27;;;;;;;;;;;15.50;99.90;;;;;;4863436;29;19986;-85
2023/10/21 13:16:53;;;;;;;;;;;15.50;99.90;;;;;;4864323;29;20356;-87
2023/10/21 13:19:19;;;;;;;;;;;15.40;99.90;;;;;;4865401;29;19928;-88
2023/10/21 13:21:44;;;;;;;;;;;15.40;99.90;;;;;;4864371;29;20245;-87
2023/10/21 13:24:10;;;;;;;;;;;15.40;99.90;;;;;;4848316;29;20380;-85
2023/10/21 13:26:37;;;;;;;;;;;15.40;99.90;;;;;;4863956;29;19990;-84
2023/10/21 13:29:04;;;;;;;;;;;15.40;99.90;;;;;;4863383;29;19924;-86
2023/10/21 13:31:30;;;;;;;;;;;15.60;99.90;;;;;;4848493;29;19998;-86
2023/10/21 13:33:55;;;;;;;;;;;15.80;99.90;;;;;;4865098;29;20356;-85
2023/10/21 13:36:21;;;;;;;;;;;15.90;99.90;;;;;;4864458;29;20007;-86
2023/10/21 13:38:47;;;;;;;;;;;16.00;99.90;;;;;;4863808;29;20255;-84
2023/10/21 13:41:13;;;;;;;;;;;15.90;99.90;;;;;;4863459;29;19925;-90
2023/10/21 13:43:39;;;;;;;;;;;15.90;99.90;;;;;;4864177;29;20508;-84
2023/10/21 13:46:06;;;;;;;;;;;15.80;99.90;;;;;;4863060;29;19924;-86
2023/10/21 13:48:34;;;;;;;;;;;15.80;99.90;;;;;;4864171;29;20383;-85
2023/10/21 13:51:06;;;;;;;;;;;15.80;99.90;;;;;;4863002;29;20288;-86
2023/10/21 13:53:32;;;;;;;;;;;15.80;99.90;;;;;;4863332;29;19924;-85
2023/10/21 13:55:58;;;;;;;;;;;15.80;99.90;;;;;;4862953;29;19924;-87
2023/10/21 13:58:23;;;;;;;;;;;15.80;99.90;;;;;;4864896;29;20390;-86
2023/10/21 14:00:50;;;;;;;;;;;15.90;99.90;;;;;;4865801;29;19925;-84
2023/10/21 14:03:16;;;;;;;;;;;15.90;99.90;;;;;;4863194;29;19932;-85
2023/10/21 14:05:43;;;;;;;;;;;16.00;99.90;;;;;;4847202;29;19928;-86
2023/10/21 14:08:13;;;;;;;;;;;15.90;99.90;;;;;;4863940;29;20008;-86
2023/10/21 14:10:39;;;;;;;;;;;15.70;99.90;;;;;;4863323;29;19924;-85
2023/10/21 14:13:06;;;;;;;;;;;15.70;99.90;;;;;;4862925;29;19925;-84
2023/10/21 14:15:32;;;;;;;;;;;15.50;99.90;;;;;;4862479;29;19976;-86
2023/10/21 14:17:58;;;;;;;;;;;15.40;99.90;;;;;;4848337;29;19924;-85
2023/10/21 14:20:23;;;;;;;;;;;15.40;99.90;;;;;;4863213;29;20011;-84
2023/10/21 14:22:49;;;;;;;;;;;15.40;99.90;;;;;;4862571;29;20331;-84
2023/10/21 14:25:14;;;;;;;;;;;15.50;99.90;;;;;;4862544;29;19924;-85
2023/10/21 14:27:40;;;;;;;;;;;15.70;99.90;;;;;;4862764;29;19924;-87
2023/10/21 14:30:09;;;;;;;;;;;15.80;99.90;;;;;;4862169;29;19924;-87
2023/10/21 14:32:39;;;;;;;;;;;15.80;99.90;;;;;;4862356;29;20352;-87
2023/10/21 14:35:09;;;;;;;;;;;15.90;99.90;;;;;;4862755;29;20022;-85
2023/10/21 14:37:35;;;;;;;;;;;15.90;99.90;;;;;;4863292;29;20380;-86
2023/10/21 14:40:08;;;;;;;;;;;16.00;99.90;;;;;;4861908;29;19930;-87
2023/10/21 14:42:36;;;;;;;;;;;15.90;99.90;;;;;;4862182;29;19928;-85
2023/10/21 14:45:10;;;;;;;;;;;15.80;99.90;;;;;;4862294;29;19980;-83
2023/10/21 14:47:37;;;;;;;;;;;15.80;99.90;;;;;;4862357;29;20074;-87